createdAt,value
2023-02-12T00:01:29.278Z,22.65
2023-02-12T00:03:57.516Z,22.55
2023-02-12T00:06:26.778Z,23.60
2023-02-12T00:08:57.286Z,25.02
2023-02-12T00:11:27.503Z,26.33
2023-02-12T00:13:57.011Z,25.10
2023-02-12T00:16:27.683Z,27.27
2023-02-12T00:18:57.464Z,23.55
2023-02-12T00:21:25.642Z,25.88
2023-02-12T00:26:54.756Z,23.95
2023-02-12T00:29:25.914Z,29.67
2023-02-12T00:31:56.765Z,23.98
2023-02-12T00:34:25.892Z,25.38
2023-02-12T00:36:54.109Z,29.23
2023-02-12T00:39:22.860Z,28.92
2023-02-12T00:41:51.797Z,27.20
2023-02-12T00:44:20.138Z,29.92
2023-02-12T00:46:48.338Z,29.88
2023-02-12T00:49:16.385Z,30.52
2023-02-12T00:51:44.428Z,31.67
2023-02-12T00:54:11.521Z,32.30
2023-02-12T00:56:39.248Z,30.73
2023-02-12T00:59:06.917Z,30.67
2023-02-12T01:01:35.910Z,32.97
2023-02-12T01:04:03.724Z,35.35
2023-02-12T01:06:31.154Z,33.65
2023-02-12T01:09:00.295Z,35.40
2023-02-12T01:11:31.360Z,31.77
2023-02-12T01:14:00.043Z,29.85
2023-02-12T01:16:27.636Z,34.28
2023-02-12T01:18:56.354Z,33.95
2023-02-12T01:21:27.075Z,36.33
2023-02-12T01:23:55.620Z,36.15
2023-02-12T01:26:24.028Z,32.38
2023-02-12T01:28:54.398Z,35.40
2023-02-12T01:31:24.330Z,33.85
2023-02-12T01:33:54.634Z,35.22
2023-02-12T01:36:22.769Z,36.35
2023-02-12T01:38:51.767Z,36.75
2023-02-12T01:41:22.889Z,39.55
2023-02-12T01:44:09.171Z,35.38
2023-02-12T01:46:38.372Z,36.78
2023-02-12T01:49:09.883Z,36.80
2023-02-12T01:51:37.539Z,36.25
2023-02-12T01:54:08.773Z,36.53
2023-02-12T01:56:36.818Z,35.80
2023-02-12T01:59:04.991Z,37.63
2023-02-12T02:01:34.295Z,35.25
2023-02-12T02:04:08.598Z,39.63
2023-02-12T02:06:43.241Z,38.90
2023-02-12T02:09:11.105Z,38.28
2023-02-12T02:11:56.619Z,40.80
2023-02-12T02:14:34.226Z,38.10
2023-02-12T02:17:11.789Z,39.90
2023-02-12T02:19:59.824Z,36.88
2023-02-12T02:22:48.644Z,37.85
2023-02-12T02:25:34.850Z,37.83
2023-02-12T02:28:28.761Z,40.58
2023-02-12T02:31:21.045Z,39.97
2023-02-12T02:34:06.721Z,36.67
2023-02-12T02:37:08.371Z,36.58
2023-02-12T02:39:46.685Z,38.33
2023-02-12T02:42:19.641Z,37.92
2023-02-12T02:44:54.292Z,35.65
2023-02-12T02:47:30.105Z,37.22
2023-02-12T02:50:06.228Z,36.15
2023-02-12T02:53:00.361Z,35.88
2023-02-12T02:55:33.479Z,35.95
2023-02-12T02:58:11.814Z,36.90
2023-02-12T03:00:51.742Z,35.90
2023-02-12T03:03:29.092Z,37.38
2023-02-12T03:06:03.802Z,34.70
2023-02-12T03:08:38.908Z,34.67
2023-02-12T03:11:22.534Z,35.55
2023-02-12T03:14:11.854Z,38.67
2023-02-12T03:17:21.827Z,33.72
2023-02-12T03:19:59.005Z,36.97
2023-02-12T03:22:33.741Z,32.45
2023-02-12T03:25:18.701Z,35.47
2023-02-12T03:27:53.495Z,31.20
2023-02-12T03:30:22.304Z,33.22
2023-02-12T03:33:01.215Z,36.08
2023-02-12T03:36:02.369Z,36.78
2023-02-12T03:38:33.132Z,36.08
2023-02-12T03:41:13.457Z,35.42
2023-02-12T03:44:08.279Z,38.90
2023-02-12T03:47:19.992Z,34.72
2023-02-12T03:49:57.852Z,35.08
2023-02-12T03:52:25.602Z,35.63
2023-02-12T03:54:53.416Z,35.78
2023-02-12T03:57:24.863Z,38.95
2023-02-12T03:59:54.810Z,37.47
2023-02-12T04:02:22.576Z,32.17
2023-02-12T04:04:50.019Z,36.28
2023-02-12T04:07:18.342Z,35.47
2023-02-12T04:09:46.090Z,37.85
2023-02-12T04:12:32.374Z,38.03
2023-02-12T04:15:15.363Z,36.60
2023-02-12T04:17:57.845Z,39.78
2023-02-12T04:20:37.559Z,43.22
2023-02-12T04:23:23.040Z,37.92
2023-02-12T04:25:59.727Z,38.20
2023-02-12T04:29:02.578Z,35.03
2023-02-12T04:31:50.236Z,37.42
2023-02-12T04:34:42.814Z,37.17
2023-02-12T04:37:49.573Z,36.95
2023-02-12T04:40:19.608Z,39.95
2023-02-12T04:42:49.449Z,36.40
2023-02-12T04:45:23.742Z,33.30
2023-02-12T04:47:52.504Z,33.70
2023-02-12T04:50:20.271Z,31.10
2023-02-12T04:52:48.473Z,35.97
2023-02-12T04:55:17.084Z,31.02
2023-02-12T04:57:45.340Z,33.03
2023-02-12T05:00:17.290Z,32.55
2023-02-12T05:02:45.365Z,31.65
2023-02-12T05:05:13.741Z,31.85
2023-02-12T05:07:41.595Z,29.50
2023-02-12T05:10:09.957Z,32.45
2023-02-12T05:12:37.863Z,31.33
2023-02-12T05:15:05.321Z,33.67
2023-02-12T05:17:32.597Z,33.45
2023-02-12T05:19:59.790Z,32.78
2023-02-12T05:22:26.816Z,35.95
2023-02-12T05:24:53.601Z,32.75
2023-02-12T05:27:20.394Z,31.60
2023-02-12T05:29:47.350Z,36.45
2023-02-12T05:32:14.413Z,36.75
2023-02-12T05:34:41.610Z,33.10
2023-02-12T05:37:08.963Z,32.28
2023-02-12T05:39:36.705Z,37.03
2023-02-12T05:42:04.108Z,35.53
2023-02-12T05:44:31.604Z,39.50
2023-02-12T05:46:59.045Z,36.85
2023-02-12T05:49:26.726Z,37.42
2023-02-12T05:51:54.123Z,38.42
2023-02-12T05:54:21.617Z,40.10
2023-02-12T05:56:49.465Z,35.85
2023-02-12T05:59:23.037Z,40.08
2023-02-12T06:01:52.212Z,39.65
2023-02-12T06:04:25.724Z,41.15
2023-02-12T06:06:56.104Z,43.65
2023-02-12T06:09:24.743Z,44.10
2023-02-12T06:11:52.675Z,46.67
2023-02-12T06:14:21.789Z,41.42
2023-02-12T06:16:52.062Z,40.88
2023-02-12T06:19:19.936Z,39.35
2023-02-12T06:21:47.597Z,41.72
2023-02-12T06:24:17.034Z,42.63
2023-02-12T06:26:45.020Z,43.03
2023-02-12T06:29:13.602Z,43.70
2023-02-12T06:31:41.584Z,43.88
2023-02-12T06:34:11.689Z,42.95
2023-02-12T06:36:44.933Z,44.22
2023-02-12T06:39:17.466Z,43.55
2023-02-12T06:41:46.595Z,43.17
2023-02-12T06:44:14.094Z,44.95
2023-02-12T06:46:43.268Z,47.20
2023-02-12T06:49:14.777Z,41.65
2023-02-12T06:51:42.774Z,47.97
2023-02-12T06:54:15.990Z,45.97
2023-02-12T06:56:44.174Z,47.05
2023-02-12T06:59:16.109Z,46.67
2023-02-12T07:01:44.677Z,46.08
2023-02-12T07:04:13.957Z,43.03
2023-02-12T07:06:41.780Z,44.40
2023-02-12T07:09:09.567Z,47.90
2023-02-12T07:11:39.069Z,48.67
2023-02-12T07:14:07.490Z,46.28
2023-02-12T07:16:35.275Z,47.80
2023-02-12T07:19:03.169Z,48.05
2023-02-12T07:21:32.242Z,45.72
2023-02-12T07:24:00.304Z,46.25
2023-02-12T07:26:28.121Z,45.28
2023-02-12T07:28:59.068Z,46.22
2023-02-12T07:31:26.681Z,48.05
2023-02-12T07:33:56.895Z,44.47
2023-02-12T07:36:25.932Z,47.25
2023-02-12T07:38:55.878Z,46.22
2023-02-12T07:41:25.947Z,48.03
2023-02-12T07:44:03.784Z,44.25
2023-02-12T07:46:34.134Z,47.75
2023-02-12T07:49:07.608Z,43.55
2023-02-12T07:51:35.424Z,40.97
2023-02-12T07:54:03.704Z,49.10
2023-02-12T07:56:35.609Z,41.72
2023-02-12T07:59:08.643Z,49.85
2023-02-12T08:01:41.371Z,39.53
2023-02-12T08:04:14.078Z,43.20
2023-02-12T08:06:46.250Z,46.55
2023-02-12T08:09:17.080Z,44.80
2023-02-12T08:11:44.658Z,42.20
2023-02-12T08:14:14.049Z,44.85
2023-02-12T08:16:42.675Z,38.60
2023-02-12T08:19:18.754Z,40.95
2023-02-12T08:21:50.572Z,43.10
2023-02-12T08:24:17.487Z,42.92
2023-02-12T08:26:45.175Z,40.47
2023-02-12T08:29:15.658Z,40.70
2023-02-12T08:31:44.828Z,42.88
2023-02-12T08:34:20.110Z,42.25
2023-02-12T08:36:48.439Z,43.75
2023-02-12T08:39:16.477Z,41.03
2023-02-12T08:41:43.567Z,39.70
2023-02-12T08:44:11.143Z,45.20
2023-02-12T08:46:40.528Z,39.72
2023-02-12T08:49:14.390Z,37.20
2023-02-12T08:51:46.348Z,41.40
2023-02-12T08:54:15.986Z,42.35
2023-02-12T08:56:45.392Z,45.95
2023-02-12T08:59:14.538Z,47.28
2023-02-12T09:01:42.411Z,51.05
2023-02-12T09:04:15.238Z,47.53
2023-02-12T09:06:42.189Z,50.85
2023-02-12T09:09:09.130Z,51.47
2023-02-12T09:11:36.166Z,51.05
2023-02-12T09:14:06.555Z,48.72
2023-02-12T09:16:36.010Z,49.13
2023-02-12T09:19:04.139Z,49.55
2023-02-12T09:21:31.116Z,50.20
2023-02-12T09:23:58.999Z,50.28
2023-02-12T09:26:26.491Z,47.47
2023-02-12T09:28:54.837Z,51.25
2023-02-12T09:31:26.672Z,52.00
2023-02-12T09:33:55.691Z,50.72
2023-02-12T09:36:22.841Z,49.80
2023-02-12T09:38:50.029Z,49.78
2023-02-12T09:42:04.765Z,53.80
2023-02-12T09:44:44.834Z,47.50
2023-02-12T09:47:20.669Z,50.83
2023-02-12T09:50:03.216Z,54.13
2023-02-12T09:52:30.731Z,49.58
2023-02-12T09:54:59.008Z,51.58
2023-02-12T09:57:33.500Z,50.55
2023-02-12T10:00:03.914Z,46.67
2023-02-12T10:02:31.038Z,45.25
2023-02-12T10:05:02.019Z,48.40
2023-02-12T10:07:50.197Z,51.80
2023-02-12T10:10:27.194Z,44.47
2023-02-12T10:13:04.067Z,45.50
2023-02-12T10:15:40.618Z,45.92
2023-02-12T10:18:38.751Z,44.20
2023-02-12T10:21:29.932Z,50.75
2023-02-12T10:23:59.570Z,47.25
2023-02-12T10:26:33.326Z,51.58
2023-02-12T10:29:15.303Z,44.92
2023-02-12T10:31:46.360Z,49.28
2023-02-12T10:34:21.135Z,47.08
2023-02-12T10:36:50.588Z,47.15
2023-02-12T10:39:24.529Z,44.58
2023-02-12T10:42:40.893Z,49.25
2023-02-12T10:45:17.986Z,47.40
2023-02-12T10:47:47.162Z,50.65
2023-02-12T10:50:39.160Z,43.58
2023-02-12T10:53:06.301Z,46.50
2023-02-12T10:55:35.615Z,44.80
2023-02-12T10:58:04.449Z,46.45
2023-02-12T11:00:35.604Z,43.00
2023-02-12T11:03:11.209Z,47.38
2023-02-12T11:05:41.246Z,44.65
2023-02-12T11:08:31.624Z,49.22
2023-02-12T11:11:30.802Z,44.95
2023-02-12T11:14:06.044Z,46.10
2023-02-12T11:16:36.963Z,48.22
2023-02-12T11:19:07.083Z,42.10
2023-02-12T11:21:35.487Z,45.38
2023-02-12T11:24:21.878Z,44.28
2023-02-12T11:26:48.986Z,43.40
2023-02-12T11:29:23.704Z,40.95
2023-02-12T11:32:05.544Z,41.90
2023-02-12T11:34:32.438Z,39.63
2023-02-12T11:37:00.517Z,42.85
2023-02-12T11:39:33.980Z,44.05
2023-02-12T11:42:14.943Z,42.13
2023-02-12T11:44:52.441Z,43.78
2023-02-12T11:47:28.582Z,41.40
2023-02-12T11:50:29.722Z,41.63
2023-02-12T11:53:10.523Z,39.17
2023-02-12T11:55:42.044Z,41.80
2023-02-12T11:58:21.215Z,39.35
2023-02-12T12:01:01.468Z,41.42
2023-02-12T12:03:39.073Z,42.58
2023-02-12T12:06:23.720Z,42.88
2023-02-12T12:09:08.708Z,42.05
2023-02-12T12:12:05.916Z,41.00
2023-02-12T12:15:08.907Z,46.78
2023-02-12T12:18:02.134Z,39.95
2023-02-12T12:21:12.029Z,43.08
2023-02-12T12:23:53.997Z,40.13
2023-02-12T12:26:34.688Z,39.20
2023-02-12T12:29:25.687Z,39.03
2023-02-12T12:32:01.569Z,41.47
2023-02-12T12:34:29.429Z,37.28
2023-02-12T12:37:17.668Z,42.28
2023-02-12T12:39:59.239Z,35.92
2023-02-12T12:42:29.523Z,36.78
2023-02-12T12:45:18.397Z,39.33
2023-02-12T12:47:52.020Z,41.78
2023-02-12T12:50:45.822Z,40.08
2023-02-12T12:53:18.715Z,38.38
2023-02-12T12:56:04.689Z,38.13
2023-02-12T12:58:34.515Z,35.38
2023-02-12T13:01:20.842Z,33.63
2023-02-12T13:04:07.006Z,37.13
2023-02-12T13:06:43.015Z,36.83
2023-02-12T13:09:23.593Z,34.25
2023-02-12T13:12:28.526Z,32.17
2023-02-12T13:15:20.767Z,33.15
2023-02-12T13:18:04.469Z,29.23
2023-02-12T13:20:49.839Z,32.38
2023-02-12T13:23:28.555Z,35.40
2023-02-12T13:26:17.515Z,33.10
2023-02-12T13:28:54.153Z,29.90
2023-02-12T13:31:33.427Z,28.00
2023-02-12T13:34:13.825Z,29.98
2023-02-12T13:36:42.912Z,26.02
2023-02-12T13:39:13.206Z,17.67
2023-02-12T13:41:46.240Z,18.48
2023-02-12T13:44:26.438Z,19.88
2023-02-12T13:47:22.819Z,20.17
2023-02-12T13:50:03.563Z,19.20
2023-02-12T13:53:08.666Z,16.33
2023-02-12T13:56:22.965Z,16.00
2023-02-12T13:58:52.843Z,17.35
2023-02-12T14:01:41.971Z,24.05
2023-02-12T14:04:22.061Z,19.77
2023-02-12T14:07:06.790Z,17.63
2023-02-12T14:09:42.443Z,20.02
2023-02-12T14:12:17.891Z,19.20
2023-02-12T14:14:50.443Z,18.25
2023-02-12T14:17:29.775Z,14.32
2023-02-12T14:20:09.013Z,12.70
2023-02-12T14:22:35.942Z,16.50
2023-02-12T14:25:14.953Z,20.77
2023-02-12T14:27:41.819Z,19.70
2023-02-12T14:30:11.991Z,19.23
2023-02-12T14:32:55.385Z,20.05
2023-02-12T14:35:33.105Z,21.85
2023-02-12T14:38:12.106Z,20.83
2023-02-12T14:40:44.204Z,22.83
2023-02-12T14:43:31.294Z,22.08
2023-02-12T14:48:59.224Z,25.10
2023-02-12T14:51:39.606Z,25.50
2023-02-12T14:54:17.080Z,25.80
2023-02-12T14:56:48.094Z,25.80
2023-02-12T14:59:20.376Z,28.75
2023-02-12T15:01:48.930Z,29.02
2023-02-12T15:04:30.421Z,28.80
2023-02-12T15:07:08.405Z,26.80
2023-02-12T15:09:49.808Z,23.48
2023-02-12T15:12:35.660Z,21.85
2023-02-12T15:15:06.740Z,21.50
2023-02-12T15:17:39.585Z,22.75
2023-02-12T15:20:25.530Z,20.55
2023-02-12T15:22:52.316Z,23.52
2023-02-12T15:25:25.159Z,21.95
2023-02-12T15:28:29.612Z,21.67
2023-02-12T15:30:57.187Z,19.33
2023-02-12T15:33:32.061Z,18.05
2023-02-12T15:35:59.878Z,18.75
2023-02-12T15:38:38.254Z,16.33
2023-02-12T15:41:06.669Z,17.50
2023-02-12T15:43:39.924Z,15.82
2023-02-12T15:46:15.376Z,17.00
2023-02-12T15:48:42.757Z,15.10
2023-02-12T15:51:18.735Z,14.75
2023-02-12T15:53:46.010Z,15.82
2023-02-12T15:56:17.202Z,15.07
2023-02-12T15:58:53.322Z,15.38
2023-02-12T16:01:23.915Z,13.43
2023-02-12T16:03:57.832Z,13.05
2023-02-12T16:06:27.197Z,15.45
2023-02-12T16:09:06.447Z,14.10
2023-02-12T16:11:34.119Z,13.77
2023-02-12T16:14:07.714Z,13.45
2023-02-12T16:16:48.906Z,15.70
2023-02-12T16:19:27.838Z,15.80
2023-02-12T16:22:16.124Z,14.35
2023-02-12T16:24:51.952Z,15.75
2023-02-12T16:27:34.437Z,14.82
2023-02-12T16:30:07.833Z,14.93
2023-02-12T16:32:39.731Z,14.57
2023-02-12T16:35:09.692Z,13.68
2023-02-12T16:37:36.477Z,12.18
2023-02-12T16:40:12.644Z,12.65
2023-02-12T16:42:49.446Z,14.57
2023-02-12T16:45:28.453Z,13.10
2023-02-12T16:48:05.460Z,16.98
2023-02-12T16:50:34.288Z,15.95
2023-02-12T16:53:22.502Z,16.30
2023-02-12T16:55:50.015Z,15.23
2023-02-12T16:58:16.828Z,17.42
2023-02-12T17:00:43.859Z,16.98
2023-02-12T17:03:14.186Z,17.73
2023-02-12T17:05:43.690Z,19.30
2023-02-12T17:08:14.614Z,19.50
2023-02-12T17:10:42.588Z,17.65
2023-02-12T17:13:10.502Z,19.55
2023-02-12T17:15:59.865Z,23.15
2023-02-12T17:18:27.640Z,20.50
2023-02-12T17:21:01.445Z,20.63
2023-02-12T17:23:29.930Z,18.45
2023-02-12T17:25:57.580Z,22.52
2023-02-12T17:28:25.412Z,20.00
2023-02-12T17:30:53.772Z,20.70
2023-02-12T17:33:20.851Z,20.08
2023-02-12T17:35:47.835Z,19.52
2023-02-12T17:38:14.660Z,22.80
2023-02-12T17:40:41.689Z,22.98
2023-02-12T17:43:08.567Z,28.15
2023-02-12T17:45:35.492Z,24.98
2023-02-12T17:48:02.488Z,23.58
2023-02-12T17:50:29.402Z,20.83
2023-02-12T17:52:56.180Z,21.90
2023-02-12T17:55:23.204Z,21.60
2023-02-12T17:57:55.030Z,24.58
2023-02-12T18:00:22.749Z,21.10
2023-02-12T18:02:49.706Z,22.98
2023-02-12T18:05:16.797Z,23.65
2023-02-12T18:07:44.066Z,25.50
2023-02-12T18:10:11.848Z,23.17
2023-02-12T18:12:38.878Z,23.92
2023-02-12T18:15:08.028Z,22.10
2023-02-12T18:17:35.440Z,25.60
2023-02-12T18:20:02.615Z,23.92
2023-02-12T18:22:29.512Z,26.38
2023-02-12T18:24:57.652Z,25.38
2023-02-12T18:27:24.569Z,25.52
2023-02-12T18:29:51.553Z,24.17
2023-02-12T18:32:18.489Z,28.42
2023-02-12T18:34:46.202Z,25.45
2023-02-12T18:37:13.951Z,28.98
2023-02-12T18:39:40.949Z,30.67
2023-02-12T18:42:09.247Z,32.17
2023-02-12T18:44:37.026Z,31.15
2023-02-12T18:47:03.995Z,27.23
2023-02-12T18:49:30.918Z,27.27
2023-02-12T18:51:57.989Z,26.92
2023-02-12T18:54:24.797Z,25.90
2023-02-12T18:56:53.410Z,25.90
2023-02-12T18:59:25.202Z,29.60
2023-02-12T19:01:54.091Z,25.27
2023-02-12T19:04:23.983Z,29.40
2023-02-12T19:06:53.159Z,25.95
2023-02-12T19:09:24.224Z,25.35
2023-02-12T19:11:53.680Z,27.92
2023-02-12T19:14:23.088Z,25.55
2023-02-12T19:16:51.169Z,27.48
2023-02-12T19:19:21.883Z,25.20
2023-02-12T19:21:49.251Z,29.75
2023-02-12T19:24:17.852Z,26.30
2023-02-12T19:26:45.267Z,26.52
2023-02-12T19:29:12.674Z,25.20
2023-02-12T19:31:43.823Z,27.25
2023-02-12T19:34:22.364Z,31.23
2023-02-12T19:36:50.127Z,27.38
2023-02-12T19:39:20.650Z,25.02
2023-02-12T19:41:48.201Z,24.98
2023-02-12T19:44:21.129Z,27.20
2023-02-12T19:46:48.721Z,27.50
2023-02-12T19:49:21.994Z,27.67
2023-02-12T19:51:49.555Z,24.20
2023-02-12T19:54:17.984Z,26.52
2023-02-12T19:56:45.444Z,24.80
2023-02-12T19:59:14.901Z,29.20
2023-02-12T20:01:41.817Z,27.70
2023-02-12T20:04:10.667Z,28.95
2023-02-12T20:06:37.930Z,26.25
2023-02-12T20:09:06.404Z,27.33
2023-02-12T20:11:37.716Z,24.92
2023-02-12T20:14:06.666Z,22.73
2023-02-12T20:16:38.169Z,21.25
2023-02-12T20:19:12.352Z,22.13
2023-02-12T20:21:39.650Z,22.40
2023-02-12T20:24:07.151Z,22.95
2023-02-12T20:26:34.744Z,20.85
2023-02-12T20:29:04.957Z,23.00
2023-02-12T20:31:34.985Z,22.67
2023-02-12T20:34:11.258Z,20.63
2023-02-12T20:36:40.181Z,21.08
2023-02-12T20:39:09.746Z,22.85
2023-02-12T20:41:37.365Z,19.05
2023-02-12T20:44:11.159Z,20.55
2023-02-12T20:46:42.641Z,20.00
2023-02-12T20:49:12.984Z,19.60
2023-02-12T20:51:40.029Z,22.52
2023-02-12T20:54:07.161Z,19.40
2023-02-12T20:56:36.379Z,18.52
2023-02-12T20:59:05.251Z,16.42
2023-02-12T21:01:38.169Z,15.32
2023-02-12T21:04:08.107Z,20.85
2023-02-12T21:06:36.081Z,17.30
2023-02-12T21:09:03.872Z,16.27
2023-02-12T21:11:30.999Z,16.08
2023-02-12T21:14:12.699Z,20.65
2023-02-12T21:16:46.663Z,17.27
2023-02-12T21:19:18.108Z,17.98
2023-02-12T21:21:45.777Z,16.77
2023-02-12T21:24:22.120Z,16.33
2023-02-12T21:26:50.620Z,14.68
2023-02-12T21:29:18.300Z,15.02
2023-02-12T21:31:47.739Z,14.02
2023-02-12T21:34:21.208Z,15.95
2023-02-12T21:36:49.901Z,15.95
2023-02-12T21:39:29.242Z,14.00
2023-02-12T21:42:03.000Z,15.20
2023-02-12T21:44:32.188Z,16.05
2023-02-12T21:46:59.040Z,14.88
2023-02-12T21:49:28.162Z,14.75
2023-02-12T21:52:02.217Z,13.90
2023-02-12T21:54:30.082Z,14.38
2023-02-12T21:56:57.396Z,12.75
2023-02-12T21:59:24.912Z,13.80
2023-02-12T22:01:54.122Z,14.75
2023-02-12T22:04:21.474Z,21.80
2023-02-12T22:06:50.008Z,19.55
2023-02-12T22:09:19.518Z,23.33
2023-02-12T22:11:46.688Z,22.15
2023-02-12T22:14:16.105Z,19.42
2023-02-12T22:16:43.452Z,17.38
2023-02-12T22:19:10.417Z,15.43
2023-02-12T22:21:40.139Z,17.00
2023-02-12T22:24:11.073Z,18.55
2023-02-12T22:26:38.043Z,19.60
2023-02-12T22:29:07.144Z,25.92
2023-02-12T22:31:35.992Z,36.55
2023-02-12T22:34:07.098Z,29.50
2023-02-12T22:36:36.051Z,25.27
2023-02-12T22:39:04.308Z,23.85
2023-02-12T22:41:31.615Z,23.70
2023-02-12T22:44:00.371Z,16.98
2023-02-12T22:46:27.838Z,18.40
2023-02-12T22:48:55.053Z,13.00
2023-02-12T22:51:25.078Z,14.95
2023-02-12T22:53:51.989Z,16.67
2023-02-12T22:56:19.806Z,14.60
2023-02-12T22:58:48.313Z,13.75
2023-02-12T23:01:17.905Z,13.40
2023-02-12T23:03:45.687Z,11.10
2023-02-12T23:06:15.620Z,12.43
2023-02-12T23:08:43.069Z,11.50
2023-02-12T23:11:11.382Z,12.40
2023-02-12T23:13:38.632Z,12.02
2023-02-12T23:16:05.667Z,12.57
2023-02-12T23:18:32.922Z,12.13
2023-02-12T23:21:00.499Z,13.57
2023-02-12T23:23:28.115Z,11.27
2023-02-12T23:25:55.669Z,11.10
2023-02-12T23:28:23.430Z,12.13
2023-02-12T23:30:52.060Z,11.52
2023-02-12T23:33:19.889Z,11.48
2023-02-12T23:35:48.001Z,10.38
2023-02-12T23:38:15.441Z,10.68
2023-02-12T23:40:43.082Z,12.80
2023-02-12T23:43:10.514Z,12.77
2023-02-12T23:45:37.625Z,12.55
2023-02-12T23:48:04.743Z,12.57
2023-02-12T23:50:31.887Z,13.18
2023-02-12T23:52:59.496Z,14.15
2023-02-12T23:55:26.667Z,13.73
2023-02-12T23:57:53.766Z,11.77
